createdAt,value
2023-10-27T00:05:45.123Z,0
2023-10-27T00:21:05.931Z,0
2023-10-27T00:36:26.741Z,0
2023-10-27T00:51:47.549Z,0
2023-10-27T01:07:08.358Z,0
2023-10-27T01:22:29.165Z,0
2023-10-27T01:37:49.980Z,0
2023-10-27T01:53:09.805Z,0
2023-10-27T02:08:30.613Z,0
2023-10-27T02:23:51.422Z,0
2023-10-27T02:39:12.229Z,0
2023-10-27T02:54:33.037Z,0
2023-10-27T03:09:53.845Z,0
2023-10-27T03:25:14.652Z,0
2023-10-27T03:40:35.459Z,0
2023-10-27T03:55:56.266Z,0
2023-10-27T04:11:17.074Z,0
2023-10-27T04:26:37.881Z,0
2023-10-27T04:41:58.689Z,0
2023-10-27T04:57:19.495Z,0
2023-10-27T05:12:39.318Z,0
2023-10-27T05:28:00.125Z,0
2023-10-27T05:43:20.888Z,3
2023-10-27T05:58:41.652Z,9
2023-10-27T06:14:02.415Z,32
2023-10-27T06:29:23.183Z,48
2023-10-27T06:44:42.968Z,57
2023-10-27T07:00:03.732Z,86
2023-10-27T07:15:24.495Z,128
2023-10-27T07:30:45.259Z,173
2023-10-27T07:46:06.023Z,161
2023-10-27T08:01:26.789Z,261
2023-10-27T08:16:47.552Z,343
2023-10-27T08:32:08.316Z,452
2023-10-27T08:47:29.080Z,473
2023-10-27T09:02:49.844Z,454
2023-10-27T09:18:10.608Z,439
2023-10-27T09:33:31.372Z,418
2023-10-27T09:48:52.135Z,567
2023-10-27T10:04:12.899Z,958
2023-10-27T10:19:32.678Z,647
2023-10-27T10:34:53.441Z,534
2023-10-27T10:50:14.204Z,594
2023-10-27T11:05:34.968Z,594
2023-10-27T11:20:55.731Z,557
2023-10-27T11:36:16.494Z,803
2023-10-27T11:51:37.257Z,719
2023-10-27T12:06:58.020Z,1416
2023-10-27T12:22:18.782Z,995
2023-10-27T12:37:39.545Z,856
2023-10-27T12:53:00.307Z,578
2023-10-27T13:08:21.070Z,823
2023-10-27T13:23:41.832Z,515
2023-10-27T13:39:01.610Z,470
2023-10-27T13:54:22.373Z,356
2023-10-27T14:09:43.133Z,312
2023-10-27T14:25:03.896Z,192
2023-10-27T14:40:24.658Z,185
2023-10-27T14:55:45.422Z,115
2023-10-27T15:11:06.184Z,46
2023-10-27T15:26:26.947Z,40
2023-10-27T15:41:47.710Z,32
2023-10-27T15:57:08.473Z,9
2023-10-27T16:12:29.279Z,0
2023-10-27T16:27:50.084Z,0
2023-10-27T16:43:10.890Z,0
2023-10-27T16:58:30.709Z,0
2023-10-27T17:13:51.518Z,0
2023-10-27T17:29:12.323Z,0
2023-10-27T17:44:33.129Z,0
2023-10-27T17:59:53.935Z,0
2023-10-27T18:15:14.741Z,0
2023-10-27T18:30:35.547Z,0
2023-10-27T18:45:56.353Z,0
2023-10-27T19:01:17.166Z,0
2023-10-27T19:16:37.972Z,0
2023-10-27T19:31:58.778Z,0
2023-10-27T19:47:19.584Z,0
2023-10-27T20:02:40.389Z,0
2023-10-27T20:18:00.210Z,0
2023-10-27T20:33:21.015Z,0
2023-10-27T20:48:41.805Z,0
2023-10-27T21:04:02.630Z,0
2023-10-27T21:19:23.436Z,0
2023-10-27T21:34:44.240Z,0
2023-10-27T21:50:05.046Z,0
2023-10-27T22:05:25.851Z,0
2023-10-27T22:20:46.656Z,0
2023-10-27T22:36:07.461Z,0
2023-10-27T22:51:28.266Z,0
2023-10-27T23:06:49.071Z,0
2023-10-27T23:22:09.875Z,0
2023-10-27T23:37:29.697Z,0
2023-10-27T23:52:50.493Z,0
